sensor_id;sensor_type;location;lat;lon;timestamp;pressure;altitude;pressure_sealevel;temperature;humidity
44996;BME280;30729;49.486;10.792;2022-09-27T00:02:14;95937.44;;;11.16;100.00
44996;BME280;30729;49.486;10.792;2022-09-27T00:04:39;95924.78;;;11.15;100.00
44996;BME280;30729;49.486;10.792;2022-09-27T00:07:05;95920.75;;;11.05;100.00
44996;BME280;30729;49.486;10.792;2022-09-27T00:09:31;95917.72;;;10.97;100.00
44996;BME280;30729;49.486;10.792;2022-09-27T00:11:56;95918.25;;;10.96;100.00
44996;BME280;30729;49.486;10.792;2022-09-27T00:14:22;95920.31;;;10.90;100.00
44996;BME280;30729;49.486;10.792;2022-09-27T00:16:47;95932.19;;;10.90;100.00
44996;BME280;30729;49.486;10.792;2022-09-27T00:19:15;95921.56;;;10.83;100.00
44996;BME280;30729;49.486;10.792;2022-09-27T00:21:42;95906.63;;;10.86;100.00
44996;BME280;30729;49.486;10.792;2022-09-27T00:24:15;95907.91;;;10.85;100.00
44996;BME280;30729;49.486;10.792;2022-09-27T00:26:40;95910.97;;;10.76;100.00
44996;BME280;30729;49.486;10.792;2022-09-27T00:29:06;95903.38;;;10.76;100.00
44996;BME280;30729;49.486;10.792;2022-09-27T00:31:32;95903.38;;;10.71;100.00
44996;BME280;30729;49.486;10.792;2022-09-27T00:34:00;95901.63;;;10.68;100.00
44996;BME280;30729;49.486;10.792;2022-09-27T00:36:27;95897.31;;;10.67;100.00
44996;BME280;30729;49.486;10.792;2022-09-27T00:38:53;95897.31;;;10.67;100.00
44996;BME280;30729;49.486;10.792;2022-09-27T00:41:24;95884.91;;;10.62;100.00
44996;BME280;30729;49.486;10.792;2022-09-27T00:43:52;95885.69;;;10.63;100.00
44996;BME280;30729;49.486;10.792;2022-09-27T00:46:27;95874.81;;;10.59;100.00
44996;BME280;30729;49.486;10.792;2022-09-27T00:49:02;95877.59;;;10.53;100.00
44996;BME280;30729;49.486;10.792;2022-09-27T00:51:30;95874.56;;;10.51;100.00
44996;BME280;30729;49.486;10.792;2022-09-27T00:53:57;95881.16;;;10.48;100.00
44996;BME280;30729;49.486;10.792;2022-09-27T00:56:26;95869.53;;;10.50;100.00
44996;BME280;30729;49.486;10.792;2022-09-27T00:59:02;95871.56;;;10.49;100.00
44996;BME280;30729;49.486;10.792;2022-09-27T01:01:31;95868.75;;;10.44;100.00
44996;BME280;30729;49.486;10.792;2022-09-27T01:04:12;95869.78;;;10.41;100.00
44996;BME280;30729;49.486;10.792;2022-09-27T01:06:38;95871.56;;;10.38;100.00
44996;BME280;30729;49.486;10.792;2022-09-27T01:09:05;95869.78;;;10.35;100.00
44996;BME280;30729;49.486;10.792;2022-09-27T01:25:46;95856.63;;;10.07;100.00
44996;BME280;30729;49.486;10.792;2022-09-27T01:28:49;95854.09;;;10.04;100.00
44996;BME280;30729;49.486;10.792;2022-09-27T01:31:46;95845.00;;;9.98;100.00
44996;BME280;30729;49.486;10.792;2022-09-27T01:34:22;95851.56;;;10.00;100.00
44996;BME280;30729;49.486;10.792;2022-09-27T01:37:03;95838.44;;;9.84;100.00
44996;BME280;30729;49.486;10.792;2022-09-27T01:42:23;95840.72;;;9.80;100.00
44996;BME280;30729;49.486;10.792;2022-09-27T01:45:01;95827.81;;;9.71;100.00
44996;BME280;30729;49.486;10.792;2022-09-27T01:47:36;95834.88;;;9.67;100.00
44996;BME280;30729;49.486;10.792;2022-09-27T01:50:08;95828.56;;;9.66;100.00
44996;BME280;30729;49.486;10.792;2022-09-27T01:52:43;95828.56;;;9.72;100.00
44996;BME280;30729;49.486;10.792;2022-09-27T01:55:14;95819.22;;;9.69;100.00
44996;BME280;30729;49.486;10.792;2022-09-27T01:57:46;95815.44;;;9.67;100.00
44996;BME280;30729;49.486;10.792;2022-09-27T02:00:14;95824.03;;;9.57;100.00
44996;BME280;30729;49.486;10.792;2022-09-27T02:02:49;95814.41;;;9.58;100.00
44996;BME280;30729;49.486;10.792;2022-09-27T02:05:19;95811.88;;;9.61;100.00
44996;BME280;30729;49.486;10.792;2022-09-27T02:07:58;95809.38;;;9.57;100.00
44996;BME280;30729;49.486;10.792;2022-09-27T02:10:30;95807.59;;;9.59;100.00
44996;BME280;30729;49.486;10.792;2022-09-27T02:21:29;95801.28;;;9.53;100.00
44996;BME280;30729;49.486;10.792;2022-09-27T02:24:02;95799.50;;;9.50;100.00
44996;BME280;30729;49.486;10.792;2022-09-27T02:26:35;95804.81;;;9.59;100.00
44996;BME280;30729;49.486;10.792;2022-09-27T02:29:21;95790.16;;;9.53;100.00
44996;BME280;30729;49.486;10.792;2022-09-27T02:31:48;95786.13;;;9.54;100.00
44996;BME280;30729;49.486;10.792;2022-09-27T02:34:18;95783.56;;;9.56;100.00
44996;BME280;30729;49.486;10.792;2022-09-27T02:36:46;95787.13;;;9.51;100.00
44996;BME280;30729;49.486;10.792;2022-09-27T02:39:12;95789.13;;;9.45;100.00
44996;BME280;30729;49.486;10.792;2022-09-27T02:41:38;95787.91;;;9.57;100.00
44996;BME280;30729;49.486;10.792;2022-09-27T02:44:07;95788.13;;;9.59;100.00
44996;BME280;30729;49.486;10.792;2022-09-27T02:46:52;95790.66;;;9.57;100.00
44996;BME280;30729;49.486;10.792;2022-09-27T02:52:33;95784.84;;;9.67;100.00
44996;BME280;30729;49.486;10.792;2022-09-27T02:55:10;95779.56;;;9.57;100.00
44996;BME280;30729;49.486;10.792;2022-09-27T02:58:09;95777.00;;;9.59;100.00
44996;BME280;30729;49.486;10.792;2022-09-27T03:03:13;95768.69;;;9.59;100.00
44996;BME280;30729;49.486;10.792;2022-09-27T03:05:45;95767.41;;;9.61;100.00
44996;BME280;30729;49.486;10.792;2022-09-27T03:08:13;95770.19;;;9.61;100.00
44996;BME280;30729;49.486;10.792;2022-09-27T03:10:39;95775.00;;;9.77;100.00
44996;BME280;30729;49.486;10.792;2022-09-27T03:13:05;95774.75;;;9.75;100.00
44996;BME280;30729;49.486;10.792;2022-09-27T03:15:30;95768.94;;;9.73;100.00
44996;BME280;30729;49.486;10.792;2022-09-27T03:17:56;95773.72;;;9.72;100.00
44996;BME280;30729;49.486;10.792;2022-09-27T03:20:22;95775.50;;;9.70;100.00
44996;BME280;30729;49.486;10.792;2022-09-27T03:22:47;95771.47;;;9.71;100.00
44996;BME280;30729;49.486;10.792;2022-09-27T03:25:12;95771.72;;;9.67;100.00
44996;BME280;30729;49.486;10.792;2022-09-27T03:27:38;95766.66;;;9.71;100.00
44996;BME280;30729;49.486;10.792;2022-09-27T03:30:04;95770.94;;;9.72;100.00
44996;BME280;30729;49.486;10.792;2022-09-27T03:32:30;95775.50;;;9.70;100.00
44996;BME280;30729;49.486;10.792;2022-09-27T03:34:56;95771.47;;;9.71;100.00
44996;BME280;30729;49.486;10.792;2022-09-27T03:37:21;95767.66;;;9.74;100.00
44996;BME280;30729;49.486;10.792;2022-09-27T03:39:47;95762.88;;;9.69;100.00
44996;BME280;30729;49.486;10.792;2022-09-27T03:42:12;95765.91;;;9.59;100.00
44996;BME280;30729;49.486;10.792;2022-09-27T03:44:38;95766.91;;;9.62;100.00
44996;BME280;30729;49.486;10.792;2022-09-27T03:47:03;95756.28;;;9.61;100.00
44996;BME280;30729;49.486;10.792;2022-09-27T03:49:29;95757.56;;;9.54;100.00
44996;BME280;30729;49.486;10.792;2022-09-27T03:51:56;95758.31;;;9.60;100.00
44996;BME280;30729;49.486;10.792;2022-09-27T03:54:22;95762.63;;;9.55;100.00
44996;BME280;30729;49.486;10.792;2022-09-27T03:56:47;95756.81;;;9.53;100.00
44996;BME280;30729;49.486;10.792;2022-09-27T03:59:12;95752.25;;;9.50;100.00
44996;BME280;30729;49.486;10.792;2022-09-27T04:01:38;95749.97;;;9.60;100.00
44996;BME280;30729;49.486;10.792;2022-09-27T04:04:04;95755.03;;;9.56;100.00
44996;BME280;30729;49.486;10.792;2022-09-27T04:06:30;95746.69;;;9.50;100.00
44996;BME280;30729;49.486;10.792;2022-09-27T04:08:55;95755.53;;;9.54;100.00
44996;BME280;30729;49.486;10.792;2022-09-27T04:11:21;95756.31;;;9.49;100.00
44996;BME280;30729;49.486;10.792;2022-09-27T04:13:48;95757.06;;;9.50;100.00
44996;BME280;30729;49.486;10.792;2022-09-27T04:16:13;95761.59;;;9.47;100.00
44996;BME280;30729;49.486;10.792;2022-09-27T04:18:40;95770.69;;;9.48;100.00
44996;BME280;30729;49.486;10.792;2022-09-27T04:21:05;95794.44;;;9.49;100.00
44996;BME280;30729;49.486;10.792;2022-09-27T04:23:31;95785.34;;;9.37;100.00
44996;BME280;30729;49.486;10.792;2022-09-27T04:25:56;95792.91;;;9.31;100.00
44996;BME280;30729;49.486;10.792;2022-09-27T04:28:21;95786.09;;;9.32;100.00
44996;BME280;30729;49.486;10.792;2022-09-27T04:30:47;95785.06;;;9.24;100.00
44996;BME280;30729;49.486;10.792;2022-09-27T04:33:13;95786.06;;;9.21;100.00
44996;BME280;30729;49.486;10.792;2022-09-27T04:35:38;95794.16;;;9.19;100.00
44996;BME280;30729;49.486;10.792;2022-09-27T04:38:22;95793.13;;;9.11;100.00
44996;BME280;30729;49.486;10.792;2022-09-27T04:40:49;95789.81;;;9.01;100.00
44996;BME280;30729;49.486;10.792;2022-09-27T04:43:15;95799.91;;;8.93;100.00
44996;BME280;30729;49.486;10.792;2022-09-27T04:45:42;95787.28;;;8.92;100.00
44996;BME280;30729;49.486;10.792;2022-09-27T04:48:08;95793.06;;;8.88;100.00
44996;BME280;30729;49.486;10.792;2022-09-27T04:50:33;95791.56;;;8.87;100.00
44996;BME280;30729;49.486;10.792;2022-09-27T04:52:59;95789.78;;;8.84;100.00
44996;BME280;30729;49.486;10.792;2022-09-27T04:55:24;95793.81;;;8.89;100.00
44996;BME280;30729;49.486;10.792;2022-09-27T04:57:49;95794.06;;;8.85;100.00
44996;BME280;30729;49.486;10.792;2022-09-27T05:00:15;95802.38;;;8.85;100.00
44996;BME280;30729;49.486;10.792;2022-09-27T05:02:42;95790.50;;;8.79;100.00
44996;BME280;30729;49.486;10.792;2022-09-27T05:05:08;95805.63;;;8.78;100.00
44996;BME280;30729;49.486;10.792;2022-09-27T05:07:34;95799.38;;;8.83;100.00
44996;BME280;30729;49.486;10.792;2022-09-27T05:10:00;95807.19;;;8.90;100.00
44996;BME280;30729;49.486;10.792;2022-09-27T05:12:25;95815.53;;;8.90;100.00
44996;BME280;30729;49.486;10.792;2022-09-27T05:14:52;95813.53;;;8.96;100.00
44996;BME280;30729;49.486;10.792;2022-09-27T05:17:17;95813.75;;;8.87;100.00
44996;BME280;30729;49.486;10.792;2022-09-27T05:19:44;95819.84;;;8.91;100.00
44996;BME280;30729;49.486;10.792;2022-09-27T05:22:10;95812.28;;;8.97;100.00
44996;BME280;30729;49.486;10.792;2022-09-27T05:24:35;95815.28;;;8.99;100.00
44996;BME280;30729;49.486;10.792;2022-09-27T05:27:02;95827.16;;;9.00;100.00
44996;BME280;30729;49.486;10.792;2022-09-27T05:29:33;95826.44;;;9.05;100.00
44996;BME280;30729;49.486;10.792;2022-09-27T05:31:59;95821.09;;;8.96;100.00
44996;BME280;30729;49.486;10.792;2022-09-27T05:34:25;95823.09;;;8.95;100.00
44996;BME280;30729;49.486;10.792;2022-09-27T05:36:50;95831.97;;;8.99;100.00
44996;BME280;30729;49.486;10.792;2022-09-27T05:39:16;95832.22;;;9.01;100.00
44996;BME280;30729;49.486;10.792;2022-09-27T05:41:42;95829.94;;;9.00;100.00
44996;BME280;30729;49.486;10.792;2022-09-27T05:44:07;95837.28;;;9.03;100.00
44996;BME280;30729;49.486;10.792;2022-09-27T05:46:33;95835.00;;;9.01;100.00
44996;BME280;30729;49.486;10.792;2022-09-27T05:48:58;95839.31;;;9.08;100.00
44996;BME280;30729;49.486;10.792;2022-09-27T05:51:24;95840.56;;;9.07;100.00
44996;BME280;30729;49.486;10.792;2022-09-27T05:53:49;95847.16;;;9.10;100.00
44996;BME280;30729;49.486;10.792;2022-09-27T05:56:15;95842.34;;;9.04;100.00
44996;BME280;30729;49.486;10.792;2022-09-27T05:58:41;95853.69;;;9.06;100.00
44996;BME280;30729;49.486;10.792;2022-09-27T06:01:07;95844.09;;;9.07;100.00
44996;BME280;30729;49.486;10.792;2022-09-27T06:03:33;95845.34;;;9.01;100.00
44996;BME280;30729;49.486;10.792;2022-09-27T06:06:03;95854.97;;;9.05;100.00
44996;BME280;30729;49.486;10.792;2022-09-27T06:08:34;95855.97;;;9.08;100.00
44996;BME280;30729;49.486;10.792;2022-09-27T06:11:02;95860.28;;;9.15;100.00
44996;BME280;30729;49.486;10.792;2022-09-27T06:13:29;95860.28;;;9.15;100.00
44996;BME280;30729;49.486;10.792;2022-09-27T06:15:54;95862.78;;;9.13;100.00
44996;BME280;30729;49.486;10.792;2022-09-27T06:18:19;95861.81;;;9.16;100.00
44996;BME280;30729;49.486;10.792;2022-09-27T06:20:45;95863.59;;;9.13;100.00
44996;BME280;30729;49.486;10.792;2022-09-27T06:23:13;95864.06;;;9.12;100.00
44996;BME280;30729;49.486;10.792;2022-09-27T06:25:39;95876.97;;;9.15;100.00
44996;BME280;30729;49.486;10.792;2022-09-27T06:28:05;95879.72;;;9.15;100.00
44996;BME280;30729;49.486;10.792;2022-09-27T06:30:31;95869.91;;;9.14;100.00
44996;BME280;30729;49.486;10.792;2022-09-27T06:33:01;95880.19;;;9.02;100.00
44996;BME280;30729;49.486;10.792;2022-09-27T06:35:27;95887.03;;;9.06;100.00
44996;BME280;30729;49.486;10.792;2022-09-27T06:37:54;95892.31;;;9.04;100.00
44996;BME280;30729;49.486;10.792;2022-09-27T06:40:20;95893.34;;;9.13;100.00
44996;BME280;30729;49.486;10.792;2022-09-27T06:42:47;95895.13;;;9.10;100.00
44996;BME280;30729;49.486;10.792;2022-09-27T06:45:13;95892.09;;;9.14;100.00
44996;BME280;30729;49.486;10.792;2022-09-27T06:47:38;95902.97;;;9.17;100.00
44996;BME280;30729;49.486;10.792;2022-09-27T06:50:04;95903.44;;;9.04;100.00
44996;BME280;30729;49.486;10.792;2022-09-27T06:52:34;95909.13;;;8.84;100.00
44996;BME280;30729;49.486;10.792;2022-09-27T06:55:00;95922.28;;;8.89;100.00
44996;BME280;30729;49.486;10.792;2022-09-27T06:57:26;95914.72;;;8.95;100.00
44996;BME280;30729;49.486;10.792;2022-09-27T07:00:10;95917.25;;;8.93;100.00
44996;BME280;30729;49.486;10.792;2022-09-27T07:02:49;95917.50;;;8.95;100.00
44996;BME280;30729;49.486;10.792;2022-09-27T07:05:16;95926.31;;;8.88;100.00
44996;BME280;30729;49.486;10.792;2022-09-27T07:07:42;95935.66;;;8.91;100.00
44996;BME280;30729;49.486;10.792;2022-09-27T07:10:12;95935.91;;;8.87;100.00
44996;BME280;30729;49.486;10.792;2022-09-27T07:12:37;95938.41;;;8.85;100.00
44996;BME280;30729;49.486;10.792;2022-09-27T07:15:04;95950.03;;;8.89;100.00
44996;BME280;30729;49.486;10.792;2022-09-27T07:17:29;95951.31;;;8.88;100.00
44996;BME280;30729;49.486;10.792;2022-09-27T07:19:55;95944.56;;;9.00;100.00
44996;BME280;30729;49.486;10.792;2022-09-27T07:22:21;95957.09;;;8.90;100.00
44996;BME280;30729;49.486;10.792;2022-09-27T07:24:46;95952.63;;;8.98;100.00
44996;BME280;30729;49.486;10.792;2022-09-27T07:27:12;95959.41;;;8.92;100.00
44996;BME280;30729;49.486;10.792;2022-09-27T07:29:38;95962.78;;;9.13;100.00
44996;BME280;30729;49.486;10.792;2022-09-27T07:32:03;95966.16;;;9.33;100.00
44996;BME280;30729;49.486;10.792;2022-09-27T07:34:29;95954.75;;;9.26;100.00
44996;BME280;30729;49.486;10.792;2022-09-27T07:37:01;95956.25;;;9.21;100.00
44996;BME280;30729;49.486;10.792;2022-09-27T07:39:30;95975.47;;;9.25;100.00
44996;BME280;30729;49.486;10.792;2022-09-27T07:41:55;95964.09;;;9.23;100.00
44996;BME280;30729;49.486;10.792;2022-09-27T07:44:20;95974.78;;;9.36;100.00
44996;BME280;30729;49.486;10.792;2022-09-27T07:46:46;95977.03;;;9.37;100.00
44996;BME280;30729;49.486;10.792;2022-09-27T07:49:11;95978.56;;;9.44;100.00
44996;BME280;30729;49.486;10.792;2022-09-27T07:51:36;95983.16;;;9.52;100.00
44996;BME280;30729;49.486;10.792;2022-09-27T07:54:02;95993.81;;;9.59;100.00
44996;BME280;30729;49.486;10.792;2022-09-27T07:56:27;95996.03;;;9.50;100.00
44996;BME280;30729;49.486;10.792;2022-09-27T07:58:53;96004.09;;;9.42;100.00
44996;BME280;30729;49.486;10.792;2022-09-27T08:01:19;96005.91;;;9.56;100.00
44996;BME280;30729;49.486;10.792;2022-09-27T08:03:44;96013.53;;;9.62;100.00
44996;BME280;30729;49.486;10.792;2022-09-27T08:06:10;96020.31;;;9.61;100.00
44996;BME280;30729;49.486;10.792;2022-09-27T08:08:35;96014.03;;;9.66;100.00
44996;BME280;30729;49.486;10.792;2022-09-27T08:11:10;96013.03;;;9.69;100.00
44996;BME280;30729;49.486;10.792;2022-09-27T08:13:37;96022.41;;;9.77;100.00
44996;BME280;30729;49.486;10.792;2022-09-27T08:16:04;96016.63;;;9.86;100.00
44996;BME280;30729;49.486;10.792;2022-09-27T08:18:30;96025.25;;;9.88;100.00
44996;BME280;30729;49.486;10.792;2022-09-27T08:20:56;96025.19;;;9.77;100.00
44996;BME280;30729;49.486;10.792;2022-09-27T08:23:22;96029.84;;;10.02;100.00
44996;BME280;30729;49.486;10.792;2022-09-27T08:25:53;96027.28;;;10.04;100.00
44996;BME280;30729;49.486;10.792;2022-09-27T08:28:19;96035.91;;;10.06;100.00
44996;BME280;30729;49.486;10.792;2022-09-27T08:30:47;96027.75;;;9.86;100.00
44996;BME280;30729;49.486;10.792;2022-09-27T08:33:13;96030.03;;;9.88;100.00
44996;BME280;30729;49.486;10.792;2022-09-27T08:35:38;96034.13;;;9.98;100.00
44996;BME280;30729;49.486;10.792;2022-09-27T08:38:04;96043.00;;;10.07;100.00
44996;BME280;30729;49.486;10.792;2022-09-27T08:46:04;96046.47;;;9.91;100.00
44996;BME280;30729;49.486;10.792;2022-09-27T08:48:33;96056.81;;;9.85;100.00
44996;BME280;30729;49.486;10.792;2022-09-27T08:51:01;96061.88;;;9.81;100.00
44996;BME280;30729;49.486;10.792;2022-09-27T08:55:59;96062.91;;;9.89;100.00
44996;BME280;30729;49.486;10.792;2022-09-27T08:58:35;96051.22;;;9.74;100.00
44996;BME280;30729;49.486;10.792;2022-09-27T09:01:09;96063.34;;;9.71;100.00
44996;BME280;30729;49.486;10.792;2022-09-27T09:03:43;96066.13;;;9.71;100.00
44996;BME280;30729;49.486;10.792;2022-09-27T09:08:40;96066.38;;;9.73;100.00
44996;BME280;30729;49.486;10.792;2022-09-27T09:11:35;96073.13;;;9.61;100.00
44996;BME280;30729;49.486;10.792;2022-09-27T09:14:41;96071.91;;;9.62;100.00
44996;BME280;30729;49.486;10.792;2022-09-27T09:20:18;96074.03;;;9.95;100.00
44996;BME280;30729;49.486;10.792;2022-09-27T09:33:21;96073.97;;;9.72;100.00
44996;BME280;30729;49.486;10.792;2022-09-27T09:38:39;96081.25;;;9.70;100.00
44996;BME280;30729;49.486;10.792;2022-09-27T09:41:54;96081.53;;;9.72;100.00
44996;BME280;30729;49.486;10.792;2022-09-27T09:49:59;96081.97;;;10.19;100.00
44996;BME280;30729;49.486;10.792;2022-09-27T09:52:36;96092.31;;;10.18;100.00
44996;BME280;30729;49.486;10.792;2022-09-27T09:55:16;96084.47;;;10.17;100.00
44996;BME280;30729;49.486;10.792;2022-09-27T09:57:55;96088.22;;;9.97;100.00
44996;BME280;30729;49.486;10.792;2022-09-27T10:00:24;96078.84;;;9.94;100.00
44996;BME280;30729;49.486;10.792;2022-09-27T10:02:52;96079.16;;;10.13;100.00
44996;BME280;30729;49.486;10.792;2022-09-27T10:05:21;96078.91;;;10.17;100.00
44996;BME280;30729;49.486;10.792;2022-09-27T10:07:50;96080.19;;;10.16;100.00
44996;BME280;30729;49.486;10.792;2022-09-27T10:10:18;96088.09;;;10.34;100.00
44996;BME280;30729;49.486;10.792;2022-09-27T10:12:45;96079.72;;;10.23;100.00
44996;BME280;30729;49.486;10.792;2022-09-27T10:15:23;96079.25;;;10.36;100.00
44996;BME280;30729;49.486;10.792;2022-09-27T10:17:56;96081.50;;;10.26;100.00
44996;BME280;30729;49.486;10.792;2022-09-27T10:23:25;96096.75;;;10.58;100.00
44996;BME280;30729;49.486;10.792;2022-09-27T10:25:53;96086.41;;;10.81;100.00
44996;BME280;30729;49.486;10.792;2022-09-27T10:28:37;96106.34;;;10.57;100.00
44996;BME280;30729;49.486;10.792;2022-09-27T10:31:04;96099.50;;;10.36;100.00
44996;BME280;30729;49.486;10.792;2022-09-27T10:33:31;96110.50;;;10.02;100.00
44996;BME280;30729;49.486;10.792;2022-09-27T10:35:58;96108.53;;;9.66;100.00
44996;BME280;30729;49.486;10.792;2022-09-27T10:40:51;96113.38;;;9.28;100.00
44996;BME280;30729;49.486;10.792;2022-09-27T10:43:34;96121.97;;;9.30;100.00
44996;BME280;30729;49.486;10.792;2022-09-27T10:46:29;96125.25;;;9.28;100.00
44996;BME280;30729;49.486;10.792;2022-09-27T10:49:31;96120.06;;;9.47;100.00
44996;BME280;30729;49.486;10.792;2022-09-27T10:52:00;96118.97;;;9.82;100.00
44996;BME280;30729;49.486;10.792;2022-09-27T10:54:29;96121.78;;;9.88;100.00
44996;BME280;30729;49.486;10.792;2022-09-27T10:59:24;96114.75;;;9.92;100.00
44996;BME280;30729;49.486;10.792;2022-09-27T11:01:51;96119.38;;;10.18;100.00
44996;BME280;30729;49.486;10.792;2022-09-27T11:04:30;96120.31;;;10.91;100.00
44996;BME280;30729;49.486;10.792;2022-09-27T11:07:18;96111.47;;;10.87;100.00
44996;BME280;30729;49.486;10.792;2022-09-27T11:09:53;96119.31;;;10.83;100.00
44996;BME280;30729;49.486;10.792;2022-09-27T11:12:19;96108.59;;;11.77;100.00
44996;BME280;30729;49.486;10.792;2022-09-27T11:14:59;96119.06;;;11.26;100.00
44996;BME280;30729;49.486;10.792;2022-09-27T11:17:50;96120.31;;;10.74;100.00
44996;BME280;30729;49.486;10.792;2022-09-27T11:20:29;96127.63;;;10.61;100.00
44996;BME280;30729;49.486;10.792;2022-09-27T11:23:13;96131.13;;;10.44;100.00
44996;BME280;30729;49.486;10.792;2022-09-27T11:34:52;96131.47;;;9.98;100.00
44996;BME280;30729;49.486;10.792;2022-09-27T11:37:37;96138.13;;;9.69;100.00
44996;BME280;30729;49.486;10.792;2022-09-27T11:40:14;96133.16;;;9.41;100.00
44996;BME280;30729;49.486;10.792;2022-09-27T11:43:04;96127.66;;;9.52;100.00
44996;BME280;30729;49.486;10.792;2022-09-27T11:46:06;96121.63;;;9.54;100.00
44996;BME280;30729;49.486;10.792;2022-09-27T11:51:42;96108.34;;;9.75;100.00
44996;BME280;30729;49.486;10.792;2022-09-27T11:57:30;96110.53;;;9.59;100.00
44996;BME280;30729;49.486;10.792;2022-09-27T12:08:31;96107.41;;;11.33;100.00
44996;BME280;30729;49.486;10.792;2022-09-27T12:11:23;96105.03;;;11.71;100.00
44996;BME280;30729;49.486;10.792;2022-09-27T12:14:39;96097.22;;;11.41;100.00
44996;BME280;30729;49.486;10.792;2022-09-27T12:19:57;96089.91;;;12.19;100.00
44996;BME280;30729;49.486;10.792;2022-09-27T12:22:29;96092.84;;;11.79;100.00
44996;BME280;30729;49.486;10.792;2022-09-27T12:24:57;96089.88;;;11.44;100.00
44996;BME280;30729;49.486;10.792;2022-09-27T12:27:34;96098.81;;;11.08;100.00
44996;BME280;30729;49.486;10.792;2022-09-27T12:30:01;96096.53;;;10.90;100.00
44996;BME280;30729;49.486;10.792;2022-09-27T12:32:28;96097.00;;;10.89;100.00
44996;BME280;30729;49.486;10.792;2022-09-27T12:35:03;96092.19;;;10.67;100.00
44996;BME280;30729;49.486;10.792;2022-09-27T12:37:38;96109.88;;;10.47;100.00
44996;BME280;30729;49.486;10.792;2022-09-27T12:40:19;96115.59;;;10.21;100.00
44996;BME280;30729;49.486;10.792;2022-09-27T12:45:21;96124.63;;;9.50;100.00
44996;BME280;30729;49.486;10.792;2022-09-27T12:53:02;96104.19;;;10.13;100.00
44996;BME280;30729;49.486;10.792;2022-09-27T12:55:46;96107.34;;;10.43;100.00
44996;BME280;30729;49.486;10.792;2022-09-27T13:01:13;96100.78;;;10.46;100.00
44996;BME280;30729;49.486;10.792;2022-09-27T13:03:59;96095.72;;;10.62;100.00
44996;BME280;30729;49.486;10.792;2022-09-27T13:12:28;96092.25;;;9.96;100.00
44996;BME280;30729;49.486;10.792;2022-09-27T13:15:05;96096.50;;;9.86;100.00
44996;BME280;30729;49.486;10.792;2022-09-27T13:22:52;96085.28;;;9.57;100.00
44996;BME280;30729;49.486;10.792;2022-09-27T13:25:53;96083.69;;;9.45;100.00
44996;BME280;30729;49.486;10.792;2022-09-27T13:46:45;96098.66;;;9.59;100.00
44996;BME280;30729;49.486;10.792;2022-09-27T13:51:55;96104.44;;;9.55;100.00
44996;BME280;30729;49.486;10.792;2022-09-27T13:54:51;96102.22;;;9.65;100.00
44996;BME280;30729;49.486;10.792;2022-09-27T14:00:42;96102.00;;;9.69;100.00
44996;BME280;30729;49.486;10.792;2022-09-27T14:05:57;96094.38;;;9.64;100.00
44996;BME280;30729;49.486;10.792;2022-09-27T14:08:34;96091.34;;;9.62;100.00
44996;BME280;30729;49.486;10.792;2022-09-27T14:11:02;96089.66;;;9.75;100.00
44996;BME280;30729;49.486;10.792;2022-09-27T14:13:30;96085.13;;;9.83;100.00
44996;BME280;30729;49.486;10.792;2022-09-27T14:15:59;96084.16;;;9.92;100.00
44996;BME280;30729;49.486;10.792;2022-09-27T14:18:27;96080.94;;;10.11;100.00
44996;BME280;30729;49.486;10.792;2022-09-27T14:21:27;96083.19;;;10.06;100.00
44996;BME280;30729;49.486;10.792;2022-09-27T14:23:51;96091.13;;;10.25;100.00
44996;BME280;30729;49.486;10.792;2022-09-27T14:26:22;96087.53;;;10.19;100.00
44996;BME280;30729;49.486;10.792;2022-09-27T14:28:48;96091.16;;;10.36;100.00
44996;BME280;30729;49.486;10.792;2022-09-27T14:31:19;96094.22;;;10.61;100.00
44996;BME280;30729;49.486;10.792;2022-09-27T14:33:46;96093.22;;;10.75;100.00
44996;BME280;30729;49.486;10.792;2022-09-27T14:36:25;96095.75;;;10.73;100.00
44996;BME280;30729;49.486;10.792;2022-09-27T14:39:20;96097.78;;;10.78;100.00
44996;BME280;30729;49.486;10.792;2022-09-27T14:41:46;96093.47;;;10.77;100.00
44996;BME280;30729;49.486;10.792;2022-09-27T14:44:17;96101.03;;;10.48;100.00
44996;BME280;30729;49.486;10.792;2022-09-27T14:46:44;96091.91;;;10.42;100.00
44996;BME280;30729;49.486;10.792;2022-09-27T14:49:22;96096.16;;;10.26;100.00
44996;BME280;30729;49.486;10.792;2022-09-27T14:51:55;96096.19;;;10.32;100.00
44996;BME280;30729;49.486;10.792;2022-09-27T14:54:26;96097.19;;;10.29;100.00
44996;BME280;30729;49.486;10.792;2022-09-27T14:56:53;96101.81;;;10.54;100.00
44996;BME280;30729;49.486;10.792;2022-09-27T14:59:29;96092.94;;;10.56;100.00
44996;BME280;30729;49.486;10.792;2022-09-27T15:02:01;96099.00;;;10.38;100.00
44996;BME280;30729;49.486;10.792;2022-09-27T15:04:30;96095.44;;;10.37;100.00
44996;BME280;30729;49.486;10.792;2022-09-27T15:07:01;96100.00;;;10.40;100.00
44996;BME280;30729;49.486;10.792;2022-09-27T15:09:27;96098.75;;;10.41;100.00
44996;BME280;30729;49.486;10.792;2022-09-27T15:11:54;96095.22;;;10.46;100.00
44996;BME280;30729;49.486;10.792;2022-09-27T15:14:22;96102.81;;;10.51;100.00
44996;BME280;30729;49.486;10.792;2022-09-27T15:16:50;96097.25;;;10.51;100.00
44996;BME280;30729;49.486;10.792;2022-09-27T15:19:23;96095.69;;;10.39;100.00
44996;BME280;30729;49.486;10.792;2022-09-27T15:21:49;96089.81;;;10.20;100.00
44996;BME280;30729;49.486;10.792;2022-09-27T15:24:42;96094.63;;;10.20;100.00
44996;BME280;30729;49.486;10.792;2022-09-27T15:27:16;96099.94;;;10.23;100.00
44996;BME280;30729;49.486;10.792;2022-09-27T15:29:52;96095.69;;;10.28;100.00
44996;BME280;30729;49.486;10.792;2022-09-27T15:32:22;96094.63;;;10.20;100.00
44996;BME280;30729;49.486;10.792;2022-09-27T15:34:49;96093.31;;;10.09;100.00